<?xml version="1.0" encoding="UTF-8" standalone="no" ?>
<gpx xmlns="http://www.topografix.com/GPX/1/1" xmlns:xsi="http://www.w3.org/2001/XMLSchema-instance" xsi:schemaLocation="http://www.topografix.com/GPX/1/1 http://www.topografix.com/GPX/1/1/gpx.xsd" version="1.1" creator="VisuGPX - https://www.visugpx.com">
  <metadata>
    <name>Tournai 6,5 Km </name>
    <desc><![CDATA[Sud de Tournai sur route et petit chemin]]></desc>
  </metadata>
  <trk>
    <name><![CDATA[Afternoon Run]]></name>
    <trkseg>
      <trkpt lat="50.59904" lon="3.39252">
        <ele>48.5</ele>
        <time>2017-10-18T12:49:56Z</time>
      </trkpt>
      <trkpt lat="50.59918" lon="3.39261">
        <ele>49.3</ele>
        <time>2017-10-18T12:50:01Z</time>
      </trkpt>
      <trkpt lat="50.5992" lon="3.39261">
        <ele>49.3</ele>
        <time>2017-10-18T12:50:03Z</time>
      </trkpt>
      <trkpt lat="50.59919" lon="3.39251">
        <ele>48.8</ele>
        <time>2017-10-18T12:50:37Z</time>
      </trkpt>
      <trkpt lat="50.59924" lon="3.39224">
        <ele>48.7</ele>
        <time>2017-10-18T12:50:47Z</time>
      </trkpt>
      <trkpt lat="50.59921" lon="3.39192">
        <ele>47.8</ele>
        <time>2017-10-18T12:50:54Z</time>
      </trkpt>
      <trkpt lat="50.59919" lon="3.39159">
        <ele>46.5</ele>
        <time>2017-10-18T12:51:01Z</time>
      </trkpt>
      <trkpt lat="50.59914" lon="3.39128">
        <ele>46.2</ele>
        <time>2017-10-18T12:51:08Z</time>
      </trkpt>
      <trkpt lat="50.59913" lon="3.39099">
        <ele>46.7</ele>
        <time>2017-10-18T12:51:14Z</time>
      </trkpt>
      <trkpt lat="50.59912" lon="3.3907">
        <ele>47.1</ele>
        <time>2017-10-18T12:51:20Z</time>
      </trkpt>
      <trkpt lat="50.5991" lon="3.39034">
        <ele>47.6</ele>
        <time>2017-10-18T12:51:27Z</time>
      </trkpt>
      <trkpt lat="50.59908" lon="3.39002">
        <ele>47.9</ele>
        <time>2017-10-18T12:51:33Z</time>
      </trkpt>
      <trkpt lat="50.59904" lon="3.38971">
        <ele>48</ele>
        <time>2017-10-18T12:51:39Z</time>
      </trkpt>
      <trkpt lat="50.59902" lon="3.3894">
        <ele>48.4</ele>
        <time>2017-10-18T12:51:45Z</time>
      </trkpt>
      <trkpt lat="50.59901" lon="3.38907">
        <ele>48.8</ele>
        <time>2017-10-18T12:51:52Z</time>
      </trkpt>
      <trkpt lat="50.59902" lon="3.38878">
        <ele>49</ele>
        <time>2017-10-18T12:51:58Z</time>
      </trkpt>
      <trkpt lat="50.59899" lon="3.38849">
        <ele>49</ele>
        <time>2017-10-18T12:52:04Z</time>
      </trkpt>
      <trkpt lat="50.59896" lon="3.3882">
        <ele>49</ele>
        <time>2017-10-18T12:52:10Z</time>
      </trkpt>
      <trkpt lat="50.59894" lon="3.38789">
        <ele>48.9</ele>
        <time>2017-10-18T12:52:16Z</time>
      </trkpt>
      <trkpt lat="50.59894" lon="3.38757">
        <ele>48.8</ele>
        <time>2017-10-18T12:52:23Z</time>
      </trkpt>
      <trkpt lat="50.59893" lon="3.38726">
        <ele>48.7</ele>
        <time>2017-10-18T12:52:30Z</time>
      </trkpt>
      <trkpt lat="50.59894" lon="3.38695">
        <ele>48.6</ele>
        <time>2017-10-18T12:52:37Z</time>
      </trkpt>
      <trkpt lat="50.59896" lon="3.38664">
        <ele>48.5</ele>
        <time>2017-10-18T12:52:44Z</time>
      </trkpt>
      <trkpt lat="50.59898" lon="3.38632">
        <ele>48.4</ele>
        <time>2017-10-18T12:52:51Z</time>
      </trkpt>
      <trkpt lat="50.59895" lon="3.38603">
        <ele>48.3</ele>
        <time>2017-10-18T12:52:57Z</time>
      </trkpt>
      <trkpt lat="50.59888" lon="3.38573">
        <ele>48.1</ele>
        <time>2017-10-18T12:53:03Z</time>
      </trkpt>
      <trkpt lat="50.59885" lon="3.38569">
        <ele>48.1</ele>
        <time>2017-10-18T12:53:04Z</time>
      </trkpt>
      <trkpt lat="50.59868" lon="3.38555">
        <ele>48.6</ele>
        <time>2017-10-18T12:53:10Z</time>
      </trkpt>
      <trkpt lat="50.59848" lon="3.38559">
        <ele>49</ele>
        <time>2017-10-18T12:53:17Z</time>
      </trkpt>
      <trkpt lat="50.59829" lon="3.38559">
        <ele>48.7</ele>
        <time>2017-10-18T12:53:24Z</time>
      </trkpt>
      <trkpt lat="50.59809" lon="3.38567">
        <ele>47.9</ele>
        <time>2017-10-18T12:53:31Z</time>
      </trkpt>
      <trkpt lat="50.59789" lon="3.38572">
        <ele>47.5</ele>
        <time>2017-10-18T12:53:38Z</time>
      </trkpt>
      <trkpt lat="50.59769" lon="3.38579">
        <ele>47.8</ele>
        <time>2017-10-18T12:53:45Z</time>
      </trkpt>
      <trkpt lat="50.5975" lon="3.38588">
        <ele>47.4</ele>
        <time>2017-10-18T12:53:52Z</time>
      </trkpt>
      <trkpt lat="50.5973" lon="3.38592">
        <ele>45.9</ele>
        <time>2017-10-18T12:53:59Z</time>
      </trkpt>
      <trkpt lat="50.59711" lon="3.38597">
        <ele>45.3</ele>
        <time>2017-10-18T12:54:06Z</time>
      </trkpt>
      <trkpt lat="50.59691" lon="3.38599">
        <ele>44.8</ele>
        <time>2017-10-18T12:54:14Z</time>
      </trkpt>
      <trkpt lat="50.59672" lon="3.38606">
        <ele>44.5</ele>
        <time>2017-10-18T12:54:21Z</time>
      </trkpt>
      <trkpt lat="50.5965" lon="3.38613">
        <ele>44.1</ele>
        <time>2017-10-18T12:54:26Z</time>
      </trkpt>
      <trkpt lat="50.59644" lon="3.38618">
        <ele>44</ele>
        <time>2017-10-18T12:54:28Z</time>
      </trkpt>
      <trkpt lat="50.59643" lon="3.38619">
        <ele>44</ele>
        <time>2017-10-18T12:54:36Z</time>
      </trkpt>
      <trkpt lat="50.59653" lon="3.38592">
        <ele>44.6</ele>
        <time>2017-10-18T12:54:44Z</time>
      </trkpt>
      <trkpt lat="50.59663" lon="3.38566">
        <ele>45.1</ele>
        <time>2017-10-18T12:54:50Z</time>
      </trkpt>
      <trkpt lat="50.59674" lon="3.38542">
        <ele>45.5</ele>
        <time>2017-10-18T12:54:56Z</time>
      </trkpt>
      <trkpt lat="50.59685" lon="3.38517">
        <ele>45.9</ele>
        <time>2017-10-18T12:55:03Z</time>
      </trkpt>
      <trkpt lat="50.59694" lon="3.38489">
        <ele>45.8</ele>
        <time>2017-10-18T12:55:10Z</time>
      </trkpt>
      <trkpt lat="50.59698" lon="3.38483">
        <ele>45.8</ele>
        <time>2017-10-18T12:55:12Z</time>
      </trkpt>
      <trkpt lat="50.59686" lon="3.38467">
        <ele>45.8</ele>
        <time>2017-10-18T12:55:20Z</time>
      </trkpt>
      <trkpt lat="50.59669" lon="3.38452">
        <ele>45.5</ele>
        <time>2017-10-18T12:55:27Z</time>
      </trkpt>
      <trkpt lat="50.59654" lon="3.38437">
        <ele>45.2</ele>
        <time>2017-10-18T12:55:32Z</time>
      </trkpt>
      <trkpt lat="50.59635" lon="3.3842">
        <ele>45.1</ele>
        <time>2017-10-18T12:55:39Z</time>
      </trkpt>
      <trkpt lat="50.5962" lon="3.38406">
        <ele>45</ele>
        <time>2017-10-18T12:55:44Z</time>
      </trkpt>
      <trkpt lat="50.59601" lon="3.38393">
        <ele>45</ele>
        <time>2017-10-18T12:55:50Z</time>
      </trkpt>
      <trkpt lat="50.59581" lon="3.38386">
        <ele>44.3</ele>
        <time>2017-10-18T12:55:57Z</time>
      </trkpt>
      <trkpt lat="50.59563" lon="3.38378">
        <ele>43.7</ele>
        <time>2017-10-18T12:56:04Z</time>
      </trkpt>
      <trkpt lat="50.59544" lon="3.38366">
        <ele>42.9</ele>
        <time>2017-10-18T12:56:11Z</time>
      </trkpt>
      <trkpt lat="50.59524" lon="3.3836">
        <ele>42.3</ele>
        <time>2017-10-18T12:56:17Z</time>
      </trkpt>
      <trkpt lat="50.59505" lon="3.38351">
        <ele>41.9</ele>
        <time>2017-10-18T12:56:23Z</time>
      </trkpt>
      <trkpt lat="50.59486" lon="3.38346">
        <ele>41.1</ele>
        <time>2017-10-18T12:56:29Z</time>
      </trkpt>
      <trkpt lat="50.59468" lon="3.38342">
        <ele>40.6</ele>
        <time>2017-10-18T12:56:35Z</time>
      </trkpt>
      <trkpt lat="50.59449" lon="3.38339">
        <ele>40</ele>
        <time>2017-10-18T12:56:41Z</time>
      </trkpt>
      <trkpt lat="50.59428" lon="3.38329">
        <ele>39.5</ele>
        <time>2017-10-18T12:56:48Z</time>
      </trkpt>
      <trkpt lat="50.59408" lon="3.38315">
        <ele>39.2</ele>
        <time>2017-10-18T12:56:55Z</time>
      </trkpt>
      <trkpt lat="50.59392" lon="3.38304">
        <ele>39.3</ele>
        <time>2017-10-18T12:57:01Z</time>
      </trkpt>
      <trkpt lat="50.59373" lon="3.38289">
        <ele>40</ele>
        <time>2017-10-18T12:57:08Z</time>
      </trkpt>
      <trkpt lat="50.59354" lon="3.38274">
        <ele>40</ele>
        <time>2017-10-18T12:57:15Z</time>
      </trkpt>
      <trkpt lat="50.59338" lon="3.38262">
        <ele>40.2</ele>
        <time>2017-10-18T12:57:21Z</time>
      </trkpt>
      <trkpt lat="50.5932" lon="3.38251">
        <ele>40.7</ele>
        <time>2017-10-18T12:57:27Z</time>
      </trkpt>
      <trkpt lat="50.59303" lon="3.3824">
        <ele>41.1</ele>
        <time>2017-10-18T12:57:33Z</time>
      </trkpt>
      <trkpt lat="50.59284" lon="3.38224">
        <ele>42.1</ele>
        <time>2017-10-18T12:57:40Z</time>
      </trkpt>
      <trkpt lat="50.59265" lon="3.38211">
        <ele>42.6</ele>
        <time>2017-10-18T12:57:47Z</time>
      </trkpt>
      <trkpt lat="50.59247" lon="3.38196">
        <ele>42.7</ele>
        <time>2017-10-18T12:57:54Z</time>
      </trkpt>
      <trkpt lat="50.59229" lon="3.38184">
        <ele>42</ele>
        <time>2017-10-18T12:58:01Z</time>
      </trkpt>
      <trkpt lat="50.59209" lon="3.38188">
        <ele>42</ele>
        <time>2017-10-18T12:58:08Z</time>
      </trkpt>
      <trkpt lat="50.5919" lon="3.38194">
        <ele>42</ele>
        <time>2017-10-18T12:58:15Z</time>
      </trkpt>
      <trkpt lat="50.59169" lon="3.382">
        <ele>42.1</ele>
        <time>2017-10-18T12:58:22Z</time>
      </trkpt>
      <trkpt lat="50.59149" lon="3.38206">
        <ele>42.1</ele>
        <time>2017-10-18T12:58:29Z</time>
      </trkpt>
      <trkpt lat="50.5913" lon="3.38211">
        <ele>42</ele>
        <time>2017-10-18T12:58:36Z</time>
      </trkpt>
      <trkpt lat="50.59112" lon="3.38215">
        <ele>41.9</ele>
        <time>2017-10-18T12:58:42Z</time>
      </trkpt>
      <trkpt lat="50.59092" lon="3.38218">
        <ele>41.7</ele>
        <time>2017-10-18T12:58:49Z</time>
      </trkpt>
      <trkpt lat="50.59074" lon="3.38222">
        <ele>41.5</ele>
        <time>2017-10-18T12:58:55Z</time>
      </trkpt>
      <trkpt lat="50.59053" lon="3.38225">
        <ele>41.3</ele>
        <time>2017-10-18T12:59:02Z</time>
      </trkpt>
      <trkpt lat="50.59036" lon="3.38219">
        <ele>40.9</ele>
        <time>2017-10-18T12:59:08Z</time>
      </trkpt>
      <trkpt lat="50.59015" lon="3.38216">
        <ele>40.4</ele>
        <time>2017-10-18T12:59:15Z</time>
      </trkpt>
      <trkpt lat="50.58994" lon="3.38212">
        <ele>39.9</ele>
        <time>2017-10-18T12:59:22Z</time>
      </trkpt>
      <trkpt lat="50.58976" lon="3.38209">
        <ele>39.5</ele>
        <time>2017-10-18T12:59:28Z</time>
      </trkpt>
      <trkpt lat="50.58958" lon="3.38204">
        <ele>38.9</ele>
        <time>2017-10-18T12:59:34Z</time>
      </trkpt>
      <trkpt lat="50.58938" lon="3.38198">
        <ele>38.8</ele>
        <time>2017-10-18T12:59:41Z</time>
      </trkpt>
      <trkpt lat="50.5892" lon="3.38194">
        <ele>38.7</ele>
        <time>2017-10-18T12:59:47Z</time>
      </trkpt>
      <trkpt lat="50.58902" lon="3.38188">
        <ele>38.5</ele>
        <time>2017-10-18T12:59:53Z</time>
      </trkpt>
      <trkpt lat="50.58882" lon="3.38182">
        <ele>38.3</ele>
        <time>2017-10-18T13:00:00Z</time>
      </trkpt>
      <trkpt lat="50.58864" lon="3.38176">
        <ele>38</ele>
        <time>2017-10-18T13:00:06Z</time>
      </trkpt>
      <trkpt lat="50.58843" lon="3.38173">
        <ele>37.2</ele>
        <time>2017-10-18T13:00:13Z</time>
      </trkpt>
      <trkpt lat="50.58825" lon="3.38185">
        <ele>35.2</ele>
        <time>2017-10-18T13:00:20Z</time>
      </trkpt>
      <trkpt lat="50.58808" lon="3.38185">
        <ele>35.3</ele>
        <time>2017-10-18T13:00:26Z</time>
      </trkpt>
      <trkpt lat="50.58789" lon="3.38167">
        <ele>35.5</ele>
        <time>2017-10-18T13:00:33Z</time>
      </trkpt>
      <trkpt lat="50.58771" lon="3.38155">
        <ele>35.4</ele>
        <time>2017-10-18T13:00:40Z</time>
      </trkpt>
      <trkpt lat="50.58751" lon="3.3815">
        <ele>34.5</ele>
        <time>2017-10-18T13:00:47Z</time>
      </trkpt>
      <trkpt lat="50.58732" lon="3.38145">
        <ele>33.4</ele>
        <time>2017-10-18T13:00:54Z</time>
      </trkpt>
      <trkpt lat="50.58711" lon="3.3814">
        <ele>32.8</ele>
        <time>2017-10-18T13:01:01Z</time>
      </trkpt>
      <trkpt lat="50.58693" lon="3.38137">
        <ele>32.1</ele>
        <time>2017-10-18T13:01:08Z</time>
      </trkpt>
      <trkpt lat="50.58674" lon="3.38131">
        <ele>31.5</ele>
        <time>2017-10-18T13:01:15Z</time>
      </trkpt>
      <trkpt lat="50.58654" lon="3.38128">
        <ele>30.9</ele>
        <time>2017-10-18T13:01:22Z</time>
      </trkpt>
      <trkpt lat="50.58635" lon="3.38125">
        <ele>30</ele>
        <time>2017-10-18T13:01:28Z</time>
      </trkpt>
      <trkpt lat="50.58616" lon="3.38123">
        <ele>29.2</ele>
        <time>2017-10-18T13:01:34Z</time>
      </trkpt>
      <trkpt lat="50.58594" lon="3.38117">
        <ele>28.9</ele>
        <time>2017-10-18T13:01:41Z</time>
      </trkpt>
      <trkpt lat="50.58589" lon="3.38119">
        <ele>28.6</ele>
        <time>2017-10-18T13:01:43Z</time>
      </trkpt>
      <trkpt lat="50.58589" lon="3.38141">
        <ele>27.9</ele>
        <time>2017-10-18T13:01:49Z</time>
      </trkpt>
      <trkpt lat="50.5859" lon="3.38172">
        <ele>27</ele>
        <time>2017-10-18T13:01:56Z</time>
      </trkpt>
      <trkpt lat="50.58591" lon="3.38201">
        <ele>26.5</ele>
        <time>2017-10-18T13:02:02Z</time>
      </trkpt>
      <trkpt lat="50.58594" lon="3.38232">
        <ele>26.1</ele>
        <time>2017-10-18T13:02:09Z</time>
      </trkpt>
      <trkpt lat="50.58596" lon="3.38261">
        <ele>26</ele>
        <time>2017-10-18T13:02:15Z</time>
      </trkpt>
      <trkpt lat="50.58601" lon="3.38289">
        <ele>26</ele>
        <time>2017-10-18T13:02:21Z</time>
      </trkpt>
      <trkpt lat="50.58608" lon="3.38319">
        <ele>25.9</ele>
        <time>2017-10-18T13:02:28Z</time>
      </trkpt>
      <trkpt lat="50.58615" lon="3.38349">
        <ele>25.8</ele>
        <time>2017-10-18T13:02:35Z</time>
      </trkpt>
      <trkpt lat="50.58623" lon="3.38378">
        <ele>25.7</ele>
        <time>2017-10-18T13:02:42Z</time>
      </trkpt>
      <trkpt lat="50.58629" lon="3.38408">
        <ele>25.6</ele>
        <time>2017-10-18T13:02:49Z</time>
      </trkpt>
      <trkpt lat="50.58635" lon="3.38435">
        <ele>25.5</ele>
        <time>2017-10-18T13:02:55Z</time>
      </trkpt>
      <trkpt lat="50.58641" lon="3.38466">
        <ele>25.4</ele>
        <time>2017-10-18T13:03:02Z</time>
      </trkpt>
      <trkpt lat="50.58646" lon="3.38496">
        <ele>25.4</ele>
        <time>2017-10-18T13:03:09Z</time>
      </trkpt>
      <trkpt lat="50.58651" lon="3.38526">
        <ele>25.3</ele>
        <time>2017-10-18T13:03:16Z</time>
      </trkpt>
      <trkpt lat="50.58657" lon="3.38556">
        <ele>25.3</ele>
        <time>2017-10-18T13:03:23Z</time>
      </trkpt>
      <trkpt lat="50.58662" lon="3.38586">
        <ele>25.2</ele>
        <time>2017-10-18T13:03:30Z</time>
      </trkpt>
      <trkpt lat="50.58667" lon="3.38616">
        <ele>25.1</ele>
        <time>2017-10-18T13:03:37Z</time>
      </trkpt>
      <trkpt lat="50.58675" lon="3.38645">
        <ele>25.1</ele>
        <time>2017-10-18T13:03:44Z</time>
      </trkpt>
      <trkpt lat="50.58681" lon="3.38675">
        <ele>25</ele>
        <time>2017-10-18T13:03:51Z</time>
      </trkpt>
      <trkpt lat="50.58688" lon="3.38706">
        <ele>24.9</ele>
        <time>2017-10-18T13:03:58Z</time>
      </trkpt>
      <trkpt lat="50.58696" lon="3.38735">
        <ele>24.9</ele>
        <time>2017-10-18T13:04:05Z</time>
      </trkpt>
      <trkpt lat="50.58704" lon="3.38765">
        <ele>24.8</ele>
        <time>2017-10-18T13:04:12Z</time>
      </trkpt>
      <trkpt lat="50.58714" lon="3.38788">
        <ele>24.8</ele>
        <time>2017-10-18T13:04:18Z</time>
      </trkpt>
      <trkpt lat="50.58725" lon="3.38815">
        <ele>24.7</ele>
        <time>2017-10-18T13:04:25Z</time>
      </trkpt>
      <trkpt lat="50.58736" lon="3.38842">
        <ele>24.7</ele>
        <time>2017-10-18T13:04:32Z</time>
      </trkpt>
      <trkpt lat="50.58746" lon="3.38869">
        <ele>24.6</ele>
        <time>2017-10-18T13:04:39Z</time>
      </trkpt>
      <trkpt lat="50.58757" lon="3.38895">
        <ele>24.6</ele>
        <time>2017-10-18T13:04:46Z</time>
      </trkpt>
      <trkpt lat="50.58768" lon="3.38922">
        <ele>24.5</ele>
        <time>2017-10-18T13:04:53Z</time>
      </trkpt>
      <trkpt lat="50.58779" lon="3.38948">
        <ele>24.5</ele>
        <time>2017-10-18T13:05:00Z</time>
      </trkpt>
      <trkpt lat="50.58791" lon="3.3898">
        <ele>24.5</ele>
        <time>2017-10-18T13:05:08Z</time>
      </trkpt>
      <trkpt lat="50.58801" lon="3.39003">
        <ele>24.4</ele>
        <time>2017-10-18T13:05:14Z</time>
      </trkpt>
      <trkpt lat="50.58813" lon="3.3903">
        <ele>24.4</ele>
        <time>2017-10-18T13:05:21Z</time>
      </trkpt>
      <trkpt lat="50.58824" lon="3.39056">
        <ele>24.3</ele>
        <time>2017-10-18T13:05:28Z</time>
      </trkpt>
      <trkpt lat="50.58834" lon="3.39081">
        <ele>24.3</ele>
        <time>2017-10-18T13:05:35Z</time>
      </trkpt>
      <trkpt lat="50.58843" lon="3.39107">
        <ele>24.3</ele>
        <time>2017-10-18T13:05:42Z</time>
      </trkpt>
      <trkpt lat="50.58852" lon="3.39134">
        <ele>24.2</ele>
        <time>2017-10-18T13:05:49Z</time>
      </trkpt>
      <trkpt lat="50.58859" lon="3.39161">
        <ele>24.2</ele>
        <time>2017-10-18T13:05:55Z</time>
      </trkpt>
      <trkpt lat="50.58866" lon="3.39188">
        <ele>24.2</ele>
        <time>2017-10-18T13:06:01Z</time>
      </trkpt>
      <trkpt lat="50.58875" lon="3.39219">
        <ele>24.1</ele>
        <time>2017-10-18T13:06:08Z</time>
      </trkpt>
      <trkpt lat="50.58884" lon="3.39246">
        <ele>24.1</ele>
        <time>2017-10-18T13:06:15Z</time>
      </trkpt>
      <trkpt lat="50.58897" lon="3.39271">
        <ele>24.1</ele>
        <time>2017-10-18T13:06:22Z</time>
      </trkpt>
      <trkpt lat="50.58911" lon="3.39293">
        <ele>24</ele>
        <time>2017-10-18T13:06:29Z</time>
      </trkpt>
      <trkpt lat="50.58915" lon="3.39293">
        <ele>24</ele>
        <time>2017-10-18T13:06:31Z</time>
      </trkpt>
      <trkpt lat="50.5893" lon="3.39278">
        <ele>24.1</ele>
        <time>2017-10-18T13:06:38Z</time>
      </trkpt>
      <trkpt lat="50.58937" lon="3.3927">
        <ele>24.2</ele>
        <time>2017-10-18T13:06:41Z</time>
      </trkpt>
      <trkpt lat="50.58953" lon="3.39252">
        <ele>24.4</ele>
        <time>2017-10-18T13:06:48Z</time>
      </trkpt>
      <trkpt lat="50.58968" lon="3.39235">
        <ele>24.9</ele>
        <time>2017-10-18T13:06:55Z</time>
      </trkpt>
      <trkpt lat="50.58985" lon="3.39217">
        <ele>25.6</ele>
        <time>2017-10-18T13:07:02Z</time>
      </trkpt>
      <trkpt lat="50.59002" lon="3.39201">
        <ele>26.3</ele>
        <time>2017-10-18T13:07:09Z</time>
      </trkpt>
      <trkpt lat="50.5902" lon="3.39185">
        <ele>26.7</ele>
        <time>2017-10-18T13:07:16Z</time>
      </trkpt>
      <trkpt lat="50.59035" lon="3.3917">
        <ele>26.8</ele>
        <time>2017-10-18T13:07:22Z</time>
      </trkpt>
      <trkpt lat="50.59053" lon="3.39153">
        <ele>27.1</ele>
        <time>2017-10-18T13:07:29Z</time>
      </trkpt>
      <trkpt lat="50.59069" lon="3.39133">
        <ele>27.4</ele>
        <time>2017-10-18T13:07:36Z</time>
      </trkpt>
      <trkpt lat="50.59086" lon="3.39114">
        <ele>28.3</ele>
        <time>2017-10-18T13:07:43Z</time>
      </trkpt>
      <trkpt lat="50.59103" lon="3.39098">
        <ele>29</ele>
        <time>2017-10-18T13:07:50Z</time>
      </trkpt>
      <trkpt lat="50.59121" lon="3.39086">
        <ele>29.3</ele>
        <time>2017-10-18T13:07:57Z</time>
      </trkpt>
      <trkpt lat="50.59138" lon="3.39072">
        <ele>29.9</ele>
        <time>2017-10-18T13:08:04Z</time>
      </trkpt>
      <trkpt lat="50.59157" lon="3.39062">
        <ele>30.8</ele>
        <time>2017-10-18T13:08:11Z</time>
      </trkpt>
      <trkpt lat="50.59175" lon="3.39053">
        <ele>31</ele>
        <time>2017-10-18T13:08:18Z</time>
      </trkpt>
      <trkpt lat="50.59194" lon="3.39046">
        <ele>31.2</ele>
        <time>2017-10-18T13:08:25Z</time>
      </trkpt>
      <trkpt lat="50.59212" lon="3.39033">
        <ele>31.4</ele>
        <time>2017-10-18T13:08:32Z</time>
      </trkpt>
      <trkpt lat="50.5923" lon="3.39017">
        <ele>31.7</ele>
        <time>2017-10-18T13:08:39Z</time>
      </trkpt>
      <trkpt lat="50.59247" lon="3.39007">
        <ele>32.8</ele>
        <time>2017-10-18T13:08:45Z</time>
      </trkpt>
      <trkpt lat="50.59261" lon="3.38999">
        <ele>33.5</ele>
        <time>2017-10-18T13:08:51Z</time>
      </trkpt>
      <trkpt lat="50.59278" lon="3.38988">
        <ele>33.9</ele>
        <time>2017-10-18T13:08:58Z</time>
      </trkpt>
      <trkpt lat="50.5928" lon="3.38986">
        <ele>34</ele>
        <time>2017-10-18T13:08:59Z</time>
      </trkpt>
      <trkpt lat="50.59298" lon="3.3897">
        <ele>34.8</ele>
        <time>2017-10-18T13:09:06Z</time>
      </trkpt>
      <trkpt lat="50.59317" lon="3.38958">
        <ele>35.3</ele>
        <time>2017-10-18T13:09:13Z</time>
      </trkpt>
      <trkpt lat="50.59336" lon="3.38944">
        <ele>35.7</ele>
        <time>2017-10-18T13:09:20Z</time>
      </trkpt>
      <trkpt lat="50.59356" lon="3.38936">
        <ele>35.9</ele>
        <time>2017-10-18T13:09:27Z</time>
      </trkpt>
      <trkpt lat="50.59373" lon="3.38928">
        <ele>36.1</ele>
        <time>2017-10-18T13:09:33Z</time>
      </trkpt>
      <trkpt lat="50.59392" lon="3.38918">
        <ele>36.1</ele>
        <time>2017-10-18T13:09:39Z</time>
      </trkpt>
      <trkpt lat="50.59398" lon="3.38918">
        <ele>36</ele>
        <time>2017-10-18T13:09:41Z</time>
      </trkpt>
      <trkpt lat="50.59407" lon="3.38942">
        <ele>36</ele>
        <time>2017-10-18T13:09:46Z</time>
      </trkpt>
      <trkpt lat="50.59409" lon="3.38971">
        <ele>36</ele>
        <time>2017-10-18T13:09:51Z</time>
      </trkpt>
      <trkpt lat="50.59411" lon="3.39001">
        <ele>35.6</ele>
        <time>2017-10-18T13:09:57Z</time>
      </trkpt>
      <trkpt lat="50.5941" lon="3.39035">
        <ele>35</ele>
        <time>2017-10-18T13:10:03Z</time>
      </trkpt>
      <trkpt lat="50.59401" lon="3.39066">
        <ele>34.9</ele>
        <time>2017-10-18T13:10:09Z</time>
      </trkpt>
      <trkpt lat="50.59392" lon="3.39096">
        <ele>34.9</ele>
        <time>2017-10-18T13:10:15Z</time>
      </trkpt>
      <trkpt lat="50.59391" lon="3.39127">
        <ele>34.9</ele>
        <time>2017-10-18T13:10:22Z</time>
      </trkpt>
      <trkpt lat="50.59393" lon="3.39159">
        <ele>35.1</ele>
        <time>2017-10-18T13:10:29Z</time>
      </trkpt>
      <trkpt lat="50.59396" lon="3.39192">
        <ele>35.4</ele>
        <time>2017-10-18T13:10:36Z</time>
      </trkpt>
      <trkpt lat="50.594" lon="3.3922">
        <ele>35.7</ele>
        <time>2017-10-18T13:10:42Z</time>
      </trkpt>
      <trkpt lat="50.59402" lon="3.39253">
        <ele>35.7</ele>
        <time>2017-10-18T13:10:49Z</time>
      </trkpt>
      <trkpt lat="50.59403" lon="3.39284">
        <ele>35.5</ele>
        <time>2017-10-18T13:10:56Z</time>
      </trkpt>
      <trkpt lat="50.59406" lon="3.39316">
        <ele>35.3</ele>
        <time>2017-10-18T13:11:03Z</time>
      </trkpt>
      <trkpt lat="50.59408" lon="3.39335">
        <ele>35.1</ele>
        <time>2017-10-18T13:11:07Z</time>
      </trkpt>
      <trkpt lat="50.59401" lon="3.39362">
        <ele>34.9</ele>
        <time>2017-10-18T13:11:13Z</time>
      </trkpt>
      <trkpt lat="50.59403" lon="3.39394">
        <ele>34.7</ele>
        <time>2017-10-18T13:11:20Z</time>
      </trkpt>
      <trkpt lat="50.59405" lon="3.39422">
        <ele>35.5</ele>
        <time>2017-10-18T13:11:26Z</time>
      </trkpt>
      <trkpt lat="50.59407" lon="3.39455">
        <ele>37.2</ele>
        <time>2017-10-18T13:11:33Z</time>
      </trkpt>
      <trkpt lat="50.59413" lon="3.39486">
        <ele>39.5</ele>
        <time>2017-10-18T13:11:40Z</time>
      </trkpt>
      <trkpt lat="50.59423" lon="3.39513">
        <ele>41.5</ele>
        <time>2017-10-18T13:11:47Z</time>
      </trkpt>
      <trkpt lat="50.59431" lon="3.39544">
        <ele>43.3</ele>
        <time>2017-10-18T13:11:54Z</time>
      </trkpt>
      <trkpt lat="50.59439" lon="3.39573">
        <ele>43.6</ele>
        <time>2017-10-18T13:12:01Z</time>
      </trkpt>
      <trkpt lat="50.59447" lon="3.39602">
        <ele>43.8</ele>
        <time>2017-10-18T13:12:08Z</time>
      </trkpt>
      <trkpt lat="50.59456" lon="3.39631">
        <ele>44.2</ele>
        <time>2017-10-18T13:12:15Z</time>
      </trkpt>
      <trkpt lat="50.59463" lon="3.39661">
        <ele>44.4</ele>
        <time>2017-10-18T13:12:22Z</time>
      </trkpt>
      <trkpt lat="50.5947" lon="3.39688">
        <ele>44.6</ele>
        <time>2017-10-18T13:12:28Z</time>
      </trkpt>
      <trkpt lat="50.59477" lon="3.39715">
        <ele>44.8</ele>
        <time>2017-10-18T13:12:34Z</time>
      </trkpt>
      <trkpt lat="50.59485" lon="3.39741">
        <ele>45.1</ele>
        <time>2017-10-18T13:12:40Z</time>
      </trkpt>
      <trkpt lat="50.595" lon="3.39762">
        <ele>45.3</ele>
        <time>2017-10-18T13:12:47Z</time>
      </trkpt>
      <trkpt lat="50.59516" lon="3.39776">
        <ele>44.7</ele>
        <time>2017-10-18T13:12:54Z</time>
      </trkpt>
      <trkpt lat="50.59534" lon="3.39792">
        <ele>43</ele>
        <time>2017-10-18T13:13:01Z</time>
      </trkpt>
      <trkpt lat="50.59551" lon="3.39804">
        <ele>41.7</ele>
        <time>2017-10-18T13:13:07Z</time>
      </trkpt>
      <trkpt lat="50.59568" lon="3.39813">
        <ele>41</ele>
        <time>2017-10-18T13:13:13Z</time>
      </trkpt>
      <trkpt lat="50.59588" lon="3.3982">
        <ele>40.6</ele>
        <time>2017-10-18T13:13:20Z</time>
      </trkpt>
      <trkpt lat="50.59603" lon="3.39838">
        <ele>41.4</ele>
        <time>2017-10-18T13:13:26Z</time>
      </trkpt>
      <trkpt lat="50.59619" lon="3.39857">
        <ele>42.8</ele>
        <time>2017-10-18T13:13:34Z</time>
      </trkpt>
      <trkpt lat="50.59637" lon="3.39871">
        <ele>42.7</ele>
        <time>2017-10-18T13:13:41Z</time>
      </trkpt>
      <trkpt lat="50.59654" lon="3.39887">
        <ele>42.2</ele>
        <time>2017-10-18T13:13:49Z</time>
      </trkpt>
      <trkpt lat="50.59669" lon="3.39901">
        <ele>40.9</ele>
        <time>2017-10-18T13:13:56Z</time>
      </trkpt>
      <trkpt lat="50.59686" lon="3.39917">
        <ele>38.1</ele>
        <time>2017-10-18T13:14:04Z</time>
      </trkpt>
      <trkpt lat="50.59701" lon="3.39933">
        <ele>36.5</ele>
        <time>2017-10-18T13:14:09Z</time>
      </trkpt>
      <trkpt lat="50.59717" lon="3.39949">
        <ele>36.5</ele>
        <time>2017-10-18T13:14:14Z</time>
      </trkpt>
      <trkpt lat="50.59735" lon="3.39961">
        <ele>36.9</ele>
        <time>2017-10-18T13:14:20Z</time>
      </trkpt>
      <trkpt lat="50.5975" lon="3.39977">
        <ele>36.5</ele>
        <time>2017-10-18T13:14:26Z</time>
      </trkpt>
      <trkpt lat="50.59765" lon="3.39998">
        <ele>34.6</ele>
        <time>2017-10-18T13:14:32Z</time>
      </trkpt>
      <trkpt lat="50.59778" lon="3.4002">
        <ele>33.5</ele>
        <time>2017-10-18T13:14:38Z</time>
      </trkpt>
      <trkpt lat="50.59794" lon="3.40042">
        <ele>33</ele>
        <time>2017-10-18T13:14:45Z</time>
      </trkpt>
      <trkpt lat="50.59809" lon="3.40057">
        <ele>33.3</ele>
        <time>2017-10-18T13:14:51Z</time>
      </trkpt>
      <trkpt lat="50.59828" lon="3.40067">
        <ele>32.3</ele>
        <time>2017-10-18T13:14:57Z</time>
      </trkpt>
      <trkpt lat="50.59846" lon="3.40078">
        <ele>29.5</ele>
        <time>2017-10-18T13:15:03Z</time>
      </trkpt>
      <trkpt lat="50.59862" lon="3.4009">
        <ele>28</ele>
        <time>2017-10-18T13:15:09Z</time>
      </trkpt>
      <trkpt lat="50.5988" lon="3.40079">
        <ele>28</ele>
        <time>2017-10-18T13:15:17Z</time>
      </trkpt>
      <trkpt lat="50.59898" lon="3.40065">
        <ele>28</ele>
        <time>2017-10-18T13:15:24Z</time>
      </trkpt>
      <trkpt lat="50.59916" lon="3.40051">
        <ele>28</ele>
        <time>2017-10-18T13:15:31Z</time>
      </trkpt>
      <trkpt lat="50.59933" lon="3.40036">
        <ele>28</ele>
        <time>2017-10-18T13:15:38Z</time>
      </trkpt>
      <trkpt lat="50.59949" lon="3.40024">
        <ele>28</ele>
        <time>2017-10-18T13:15:44Z</time>
      </trkpt>
      <trkpt lat="50.59961" lon="3.40002">
        <ele>28</ele>
        <time>2017-10-18T13:15:50Z</time>
      </trkpt>
      <trkpt lat="50.5996" lon="3.39975">
        <ele>29.7</ele>
        <time>2017-10-18T13:15:56Z</time>
      </trkpt>
      <trkpt lat="50.5995" lon="3.39948">
        <ele>30</ele>
        <time>2017-10-18T13:16:03Z</time>
      </trkpt>
      <trkpt lat="50.59937" lon="3.39923">
        <ele>30</ele>
        <time>2017-10-18T13:16:09Z</time>
      </trkpt>
      <trkpt lat="50.59933" lon="3.39914">
        <ele>30</ele>
        <time>2017-10-18T13:16:11Z</time>
      </trkpt>
      <trkpt lat="50.59925" lon="3.39886">
        <ele>30.4</ele>
        <time>2017-10-18T13:16:18Z</time>
      </trkpt>
      <trkpt lat="50.59917" lon="3.39858">
        <ele>32.1</ele>
        <time>2017-10-18T13:16:25Z</time>
      </trkpt>
      <trkpt lat="50.59908" lon="3.3983">
        <ele>34.3</ele>
        <time>2017-10-18T13:16:32Z</time>
      </trkpt>
      <trkpt lat="50.59907" lon="3.39801">
        <ele>35.8</ele>
        <time>2017-10-18T13:16:39Z</time>
      </trkpt>
      <trkpt lat="50.59908" lon="3.39798">
        <ele>35.7</ele>
        <time>2017-10-18T13:16:40Z</time>
      </trkpt>
      <trkpt lat="50.59924" lon="3.39791">
        <ele>35</ele>
        <time>2017-10-18T13:17:19Z</time>
      </trkpt>
      <trkpt lat="50.59941" lon="3.39774">
        <ele>34.9</ele>
        <time>2017-10-18T13:17:27Z</time>
      </trkpt>
      <trkpt lat="50.5995" lon="3.39766">
        <ele>35</ele>
        <time>2017-10-18T13:17:30Z</time>
      </trkpt>
      <trkpt lat="50.59955" lon="3.39749">
        <ele>35</ele>
        <time>2017-10-18T13:17:34Z</time>
      </trkpt>
      <trkpt lat="50.59945" lon="3.39728">
        <ele>36.8</ele>
        <time>2017-10-18T13:17:41Z</time>
      </trkpt>
      <trkpt lat="50.59929" lon="3.39712">
        <ele>37.9</ele>
        <time>2017-10-18T13:17:47Z</time>
      </trkpt>
      <trkpt lat="50.59912" lon="3.39694">
        <ele>38.8</ele>
        <time>2017-10-18T13:17:54Z</time>
      </trkpt>
      <trkpt lat="50.59894" lon="3.39676">
        <ele>40.6</ele>
        <time>2017-10-18T13:18:01Z</time>
      </trkpt>
      <trkpt lat="50.59879" lon="3.39659">
        <ele>42.2</ele>
        <time>2017-10-18T13:18:07Z</time>
      </trkpt>
      <trkpt lat="50.59865" lon="3.39642">
        <ele>44</ele>
        <time>2017-10-18T13:18:13Z</time>
      </trkpt>
      <trkpt lat="50.59849" lon="3.39626">
        <ele>45.3</ele>
        <time>2017-10-18T13:18:19Z</time>
      </trkpt>
      <trkpt lat="50.59833" lon="3.39606">
        <ele>45.9</ele>
        <time>2017-10-18T13:18:26Z</time>
      </trkpt>
      <trkpt lat="50.59818" lon="3.39589">
        <ele>47</ele>
        <time>2017-10-18T13:18:32Z</time>
      </trkpt>
      <trkpt lat="50.59804" lon="3.39573">
        <ele>47.1</ele>
        <time>2017-10-18T13:18:38Z</time>
      </trkpt>
      <trkpt lat="50.59787" lon="3.39555">
        <ele>47.3</ele>
        <time>2017-10-18T13:18:45Z</time>
      </trkpt>
      <trkpt lat="50.59771" lon="3.39538">
        <ele>47.6</ele>
        <time>2017-10-18T13:18:51Z</time>
      </trkpt>
      <trkpt lat="50.59756" lon="3.39518">
        <ele>48.6</ele>
        <time>2017-10-18T13:18:57Z</time>
      </trkpt>
      <trkpt lat="50.59745" lon="3.39492">
        <ele>49.3</ele>
        <time>2017-10-18T13:19:03Z</time>
      </trkpt>
      <trkpt lat="50.59732" lon="3.39469">
        <ele>49.3</ele>
        <time>2017-10-18T13:19:09Z</time>
      </trkpt>
      <trkpt lat="50.59719" lon="3.39446">
        <ele>48.6</ele>
        <time>2017-10-18T13:19:15Z</time>
      </trkpt>
      <trkpt lat="50.59705" lon="3.39424">
        <ele>48.4</ele>
        <time>2017-10-18T13:19:21Z</time>
      </trkpt>
      <trkpt lat="50.59693" lon="3.39402">
        <ele>48.1</ele>
        <time>2017-10-18T13:19:27Z</time>
      </trkpt>
      <trkpt lat="50.59681" lon="3.39377">
        <ele>49</ele>
        <time>2017-10-18T13:19:34Z</time>
      </trkpt>
      <trkpt lat="50.59671" lon="3.39349">
        <ele>48.7</ele>
        <time>2017-10-18T13:19:41Z</time>
      </trkpt>
      <trkpt lat="50.59668" lon="3.39317">
        <ele>48.2</ele>
        <time>2017-10-18T13:19:48Z</time>
      </trkpt>
      <trkpt lat="50.59667" lon="3.39288">
        <ele>48</ele>
        <time>2017-10-18T13:19:54Z</time>
      </trkpt>
      <trkpt lat="50.59666" lon="3.39259">
        <ele>47.7</ele>
        <time>2017-10-18T13:20:00Z</time>
      </trkpt>
      <trkpt lat="50.59667" lon="3.39229">
        <ele>47.9</ele>
        <time>2017-10-18T13:20:06Z</time>
      </trkpt>
      <trkpt lat="50.59673" lon="3.39199">
        <ele>48</ele>
        <time>2017-10-18T13:20:12Z</time>
      </trkpt>
      <trkpt lat="50.59669" lon="3.39165">
        <ele>47.8</ele>
        <time>2017-10-18T13:20:18Z</time>
      </trkpt>
      <trkpt lat="50.59666" lon="3.39137">
        <ele>47.2</ele>
        <time>2017-10-18T13:20:23Z</time>
      </trkpt>
      <trkpt lat="50.59665" lon="3.39108">
        <ele>47.2</ele>
        <time>2017-10-18T13:20:28Z</time>
      </trkpt>
      <trkpt lat="50.59663" lon="3.39072">
        <ele>47.4</ele>
        <time>2017-10-18T13:20:35Z</time>
      </trkpt>
      <trkpt lat="50.59661" lon="3.39038">
        <ele>46.7</ele>
        <time>2017-10-18T13:20:41Z</time>
      </trkpt>
      <trkpt lat="50.59659" lon="3.39007">
        <ele>46.3</ele>
        <time>2017-10-18T13:20:46Z</time>
      </trkpt>
      <trkpt lat="50.59656" lon="3.38978">
        <ele>44.8</ele>
        <time>2017-10-18T13:20:51Z</time>
      </trkpt>
      <trkpt lat="50.59655" lon="3.38946">
        <ele>44</ele>
        <time>2017-10-18T13:20:57Z</time>
      </trkpt>
      <trkpt lat="50.59652" lon="3.38916">
        <ele>43.3</ele>
        <time>2017-10-18T13:21:02Z</time>
      </trkpt>
      <trkpt lat="50.5965" lon="3.38888">
        <ele>43</ele>
        <time>2017-10-18T13:21:08Z</time>
      </trkpt>
      <trkpt lat="50.59649" lon="3.38858">
        <ele>43.3</ele>
        <time>2017-10-18T13:21:15Z</time>
      </trkpt>
      <trkpt lat="50.5965" lon="3.38844">
        <ele>43</ele>
        <time>2017-10-18T13:21:18Z</time>
      </trkpt>
      <trkpt lat="50.59667" lon="3.38833">
        <ele>43.8</ele>
        <time>2017-10-18T13:21:24Z</time>
      </trkpt>
      <trkpt lat="50.59671" lon="3.38833">
        <ele>43.9</ele>
        <time>2017-10-18T13:21:25Z</time>
      </trkpt>
      <trkpt lat="50.5969" lon="3.38829">
        <ele>45</ele>
        <time>2017-10-18T13:21:31Z</time>
      </trkpt>
      <trkpt lat="50.59709" lon="3.38827">
        <ele>45.6</ele>
        <time>2017-10-18T13:21:37Z</time>
      </trkpt>
      <trkpt lat="50.59715" lon="3.38826">
        <ele>45.8</ele>
        <time>2017-10-18T13:21:39Z</time>
      </trkpt>
      <trkpt lat="50.59736" lon="3.38822">
        <ele>46.5</ele>
        <time>2017-10-18T13:21:46Z</time>
      </trkpt>
      <trkpt lat="50.59754" lon="3.38818">
        <ele>47.2</ele>
        <time>2017-10-18T13:21:52Z</time>
      </trkpt>
      <trkpt lat="50.59766" lon="3.38817">
        <ele>48.2</ele>
        <time>2017-10-18T13:21:56Z</time>
      </trkpt>
      <trkpt lat="50.59786" lon="3.38821">
        <ele>49.1</ele>
        <time>2017-10-18T13:22:03Z</time>
      </trkpt>
      <trkpt lat="50.59805" lon="3.38821">
        <ele>49.1</ele>
        <time>2017-10-18T13:22:10Z</time>
      </trkpt>
      <trkpt lat="50.59827" lon="3.38818">
        <ele>49.2</ele>
        <time>2017-10-18T13:22:17Z</time>
      </trkpt>
      <trkpt lat="50.59845" lon="3.38813">
        <ele>49.3</ele>
        <time>2017-10-18T13:22:23Z</time>
      </trkpt>
      <trkpt lat="50.59862" lon="3.38807">
        <ele>49.1</ele>
        <time>2017-10-18T13:22:29Z</time>
      </trkpt>
      <trkpt lat="50.59882" lon="3.38804">
        <ele>49</ele>
        <time>2017-10-18T13:22:35Z</time>
      </trkpt>
      <trkpt lat="50.59894" lon="3.38805">
        <ele>49</ele>
        <time>2017-10-18T13:22:39Z</time>
      </trkpt>
      <trkpt lat="50.599" lon="3.38835">
        <ele>49</ele>
        <time>2017-10-18T13:22:44Z</time>
      </trkpt>
      <trkpt lat="50.59901" lon="3.38842">
        <ele>49</ele>
        <time>2017-10-18T13:22:45Z</time>
      </trkpt>
      <trkpt lat="50.59905" lon="3.38873">
        <ele>49</ele>
        <time>2017-10-18T13:22:51Z</time>
      </trkpt>
      <trkpt lat="50.59909" lon="3.38905">
        <ele>48.8</ele>
        <time>2017-10-18T13:22:57Z</time>
      </trkpt>
      <trkpt lat="50.59913" lon="3.38937">
        <ele>48.4</ele>
        <time>2017-10-18T13:23:03Z</time>
      </trkpt>
      <trkpt lat="50.59917" lon="3.38968">
        <ele>48</ele>
        <time>2017-10-18T13:23:09Z</time>
      </trkpt>
      <trkpt lat="50.5992" lon="3.39">
        <ele>47.9</ele>
        <time>2017-10-18T13:23:15Z</time>
      </trkpt>
      <trkpt lat="50.59921" lon="3.39031">
        <ele>47.6</ele>
        <time>2017-10-18T13:23:21Z</time>
      </trkpt>
      <trkpt lat="50.59922" lon="3.3906">
        <ele>47.2</ele>
        <time>2017-10-18T13:23:27Z</time>
      </trkpt>
      <trkpt lat="50.59924" lon="3.3909">
        <ele>46.8</ele>
        <time>2017-10-18T13:23:33Z</time>
      </trkpt>
      <trkpt lat="50.59926" lon="3.39121">
        <ele>46.3</ele>
        <time>2017-10-18T13:23:39Z</time>
      </trkpt>
      <trkpt lat="50.59927" lon="3.3915">
        <ele>46.2</ele>
        <time>2017-10-18T13:23:45Z</time>
      </trkpt>
      <trkpt lat="50.59928" lon="3.39181">
        <ele>47.5</ele>
        <time>2017-10-18T13:23:51Z</time>
      </trkpt>
      <trkpt lat="50.59929" lon="3.39211">
        <ele>48.5</ele>
        <time>2017-10-18T13:23:57Z</time>
      </trkpt>
      <trkpt lat="50.59932" lon="3.39235">
        <ele>48.6</ele>
        <time>2017-10-18T13:24:02Z</time>
      </trkpt>
    </trkseg>
  </trk>
</gpx>